Time;durP1;ratioP1;P1;durP2;ratioP2;P2;SDS_P1;SDS_P2;PMS_P1;PMS_P2;Temp;Humidity;BMP_temperature;BMP_pressure;BME280_temperature;BME280_humidity;BME280_pressure;Samples;Min_cycle;Max_cycle;Signal;HPM_P1;HPM_P2
2023/06/10 07:23:32;;;;;;;10.57;9.23;;;;;;;-145.79;44.67;76529.50;5316956;27;20355;-71
2023/06/10 07:26:03;;;;;;;11.90;9.65;;;;;;;-145.79;44.12;76529.50;5298111;28;20114;-71
2023/06/10 07:28:35;;;;;;;10.07;9.07;;;;;;;-145.79;44.17;76512.56;5300282;28;20020;-72
2023/06/10 07:31:07;;;;;;;10.35;9.35;;;;;;;-145.79;44.07;76510.44;5297189;28;20024;-69
2023/06/10 07:33:43;;;;;;;12.85;9.93;;;;;;;-145.79;44.34;76501.97;5288895;28;20024;-69
2023/06/10 07:36:14;;;;;;;10.05;9.02;;;;;;;-145.79;44.15;76476.53;5300485;28;20031;-69
2023/06/10 07:38:45;;;;;;;9.85;8.88;;;;;;;-145.79;43.93;76480.78;5300082;28;20020;-69
2023/06/10 07:41:17;;;;;;;10.73;8.27;;;;;;;-145.79;43.84;76474.41;5297801;28;20056;-69
2023/06/10 07:43:54;;;;;;;10.55;9.25;;;;;;;-145.79;43.63;76457.47;5279234;28;20027;-69
2023/06/10 07:46:26;;;;;;;10.20;8.82;;;;;;;-145.79;42.96;76453.22;5279441;28;20464;-70
2023/06/10 07:48:58;;;;;;;12.25;8.70;;;;;;;-145.79;42.96;76448.97;5278999;28;20028;-69
2023/06/10 07:51:29;;;;;;;10.20;9.00;;;;;;;-145.79;42.79;76444.75;5279335;28;20075;-70
2023/06/10 07:54:01;;;;;;;10.05;9.05;;;;;;;-145.79;43.08;76432.03;5278441;28;20445;-69
2023/06/10 07:56:32;;;;;;;12.20;9.55;;;;;;;-145.79;42.65;76429.91;5277731;28;20096;-70
2023/06/10 07:59:03;;;;;;;8.90;7.93;;;;;;;-145.79;42.69;76419.31;5277212;28;20024;-70
2023/06/10 08:01:35;;;;;;;9.13;8.20;;;;;;;-145.79;42.92;76415.06;5276143;28;20488;-70
2023/06/10 08:04:07;;;;;;;9.70;8.73;;;;;;;-145.79;42.32;76398.13;5276570;28;20379;-72
2023/06/10 08:06:38;;;;;;;11.20;8.48;;;;;;;-145.79;41.65;76398.13;5276898;28;20021;-64
2023/06/10 08:09:10;;;;;;;8.30;7.38;;;;;;;-145.79;41.79;76383.28;5276821;28;20033;-66
2023/06/10 08:11:42;;;;;;;9.73;8.00;;;;;;;-145.79;41.64;76368.47;5277577;28;20052;-65
2023/06/10 08:14:13;;;;;;;11.45;8.77;;;;;;;-145.79;41.07;76364.22;5279348;28;20031;-66
2023/06/10 08:16:44;;;;;;;9.18;8.40;;;;;;;-145.79;40.73;76355.75;5285958;28;20460;-66
2023/06/10 08:19:16;;;;;;;9.27;7.40;;;;;;;-145.79;40.81;76355.75;5278395;28;20480;-66
2023/06/10 08:21:47;;;;;;;8.98;7.90;;;;;;;-145.79;40.53;76345.16;5299628;28;20436;-65
2023/06/10 08:24:19;;;;;;;8.75;7.80;;;;;;;-145.79;40.84;76336.66;5320305;28;20036;-65
2023/06/10 08:26:51;;;;;;;10.05;7.38;;;;;;;-145.79;40.98;76323.97;5320502;28;20027;-65
2023/06/10 08:29:23;;;;;;;9.27;7.65;;;;;;;-145.79;40.46;76313.34;5310298;28;20028;-66
2023/06/10 08:31:55;;;;;;;9.80;8.90;;;;;;;-145.79;40.21;76304.88;5298867;28;20488;-65
2023/06/10 08:34:26;;;;;;;9.30;7.45;;;;;;;-145.79;40.07;76304.88;5307179;28;20028;-66
2023/06/10 08:36:57;;;;;;;8.27;7.50;;;;;;;-145.79;40.03;76292.16;5288125;28;20032;-65
2023/06/10 08:39:31;;;;;;;10.65;7.18;;;;;;;-145.79;40.11;76287.94;5285181;28;20533;-65
2023/06/10 08:42:09;;;;;;;10.32;7.85;;;;;;;-145.79;39.91;76275.22;5285213;28;20033;-66
2023/06/10 08:44:40;;;;;;;67.78;61.75;;;;;;;-145.79;39.66;76270.97;5284272;28;20024;-65
2023/06/10 08:47:16;;;;;;;12.13;9.75;;;;;;;-145.79;39.20;76258.25;5285081;28;20028;-66
2023/06/10 08:49:48;;;;;;;8.43;7.63;;;;;;;-145.79;39.55;76266.75;5290217;28;20058;-66
2023/06/10 08:52:20;;;;;;;11.25;7.32;;;;;;;-145.79;39.35;76245.56;5305951;28;20032;-65
2023/06/10 08:55:14;;;;;;;8.90;7.20;;;;;;;-145.79;39.58;76232.84;5304023;28;20032;-66
2023/06/10 08:57:47;;;;;;;8.80;7.80;;;;;;;-145.79;39.26;76226.47;5305239;28;20459;-65
2023/06/10 09:00:19;;;;;;;9.25;6.60;;;;;;;-145.79;39.05;76215.88;5303612;28;20483;-65
2023/06/10 09:02:53;;;;;;;8.18;6.43;;;;;;;-145.79;38.99;76203.16;5303529;28;20046;-65
2023/06/10 09:05:27;;;;;;;10.25;7.35;;;;;;;-145.79;38.14;76196.81;5302990;28;20031;-66
2023/06/10 09:08:00;;;;;;;7.80;6.85;;;;;;;-145.79;38.48;76194.69;5287795;28;20040;-66
2023/06/10 09:10:32;;;;;;;7.63;6.95;;;;;;;-145.79;38.32;76184.09;5282047;28;20472;-66
2023/06/10 09:13:04;;;;;;;9.30;7.13;;;;;;;-145.79;37.86;76186.22;5281930;28;20060;-67
2023/06/10 09:15:36;;;;;;;17.77;16.20;;;;;;;-145.79;38.05;76169.25;5284261;28;20024;-66
2023/06/10 09:18:07;;;;;;;15.32;13.57;;;;;;;-145.79;37.59;76160.78;5283929;28;20039;-66
2023/06/10 09:20:39;;;;;;;9.38;7.22;;;;;;;-145.79;37.36;76152.31;5284354;28;20056;-66
2023/06/10 09:23:12;;;;;;;6.80;6.00;;;;;;;-145.79;37.66;76148.06;5284780;28;20091;-65
2023/06/10 09:25:43;;;;;;;8.00;6.97;;;;;;;-145.79;37.30;76135.38;5304658;28;20035;-66
2023/06/10 09:28:15;;;;;;;7.90;7.07;;;;;;;-145.79;37.23;76114.19;5299967;28;20085;-66
2023/06/10 09:30:46;;;;;;;7.60;6.80;;;;;;;-145.79;36.36;76122.66;5290509;28;20033;-65
2023/06/10 09:33:18;;;;;;;11.35;6.85;;;;;;;-145.79;36.39;76126.88;5283549;28;20147;-66
2023/06/10 09:35:49;;;;;;;7.03;6.32;;;;;;;-145.79;36.62;76105.69;5284074;28;20099;-66
2023/06/10 09:38:22;;;;;;;10.52;6.57;;;;;;;-145.79;35.93;76099.34;5283688;28;20051;-65
2023/06/10 09:40:54;;;;;;;7.65;6.85;;;;;;;-145.79;35.66;76065.44;5285656;28;20399;-65
2023/06/10 09:43:40;;;;;;;10.50;7.03;;;;;;;-145.79;36.18;76076.03;5294924;28;20036;-66
2023/06/10 09:46:18;;;;;;;8.10;7.30;;;;;;;-145.79;36.10;76056.97;5303015;28;20036;-65
2023/06/10 09:48:49;;;;;;;7.97;6.13;;;;;;;-145.79;36.23;76073.91;5304792;28;20024;-65
2023/06/10 09:51:21;;;;;;;7.40;6.35;;;;;;;-145.79;35.68;76054.84;5304540;28;20035;-65
2023/06/10 09:53:54;;;;;;;14.00;12.57;;;;;;;-145.79;35.58;76033.66;5287116;28;20040;-66
2023/06/10 09:56:42;;;;;;;9.75;8.85;;;;;;;-145.79;34.83;76014.59;5304337;28;20027;-66
2023/06/10 09:59:13;;;;;;;8.05;6.60;;;;;;;-145.79;35.51;76016.69;5285632;28;20512;-64
2023/06/10 10:01:54;;;;;;;7.07;6.35;;;;;;;-145.79;35.98;76010.34;5282625;28;20062;-64
2023/06/10 10:04:29;;;;;;;8.18;6.78;;;;;;;-145.79;35.94;76012.47;5283192;28;20074;-64
2023/06/10 10:07:00;;;;;;;6.55;5.95;;;;;;;-145.79;35.47;75989.16;5285265;28;20035;-65
2023/06/10 10:09:32;;;;;;;7.28;6.57;;;;;;;-145.79;35.07;75989.16;5282782;28;20016;-65
2023/06/10 10:12:10;;;;;;;7.97;6.60;;;;;;;-145.79;35.11;75987.03;5283323;28;20076;-65
2023/06/10 10:14:51;;;;;;;8.13;6.05;;;;;;;-145.79;35.15;75980.69;5287412;28;20078;-64
2023/06/10 10:17:24;;;;;;;7.30;6.40;;;;;;;-145.79;35.05;75965.84;5304359;28;20032;-65
2023/06/10 10:20:03;;;;;;;7.97;7.18;;;;;;;-145.79;34.59;75953.13;5304328;28;20017;-65
2023/06/10 10:22:39;;;;;;;7.82;6.13;;;;;;;-145.79;34.41;75948.91;5303284;28;20044;-64
2023/06/10 10:25:15;;;;;;;7.47;6.78;;;;;;;-145.79;34.54;75948.91;5302175;28;20097;-65
2023/06/10 10:28:14;;;;;;;7.90;6.63;;;;;;;-145.79;34.25;75936.19;5282693;28;20036;-65
2023/06/10 10:30:49;;;;;;;9.02;8.18;;;;;;;-145.79;34.25;75902.28;5281560;28;20033;-65
2023/06/10 10:33:53;;;;;;;8.13;6.30;;;;;;;-145.79;33.99;75917.13;5283324;28;20132;-65
2023/06/10 10:36:25;;;;;;;8.40;6.10;;;;;;;-145.79;33.91;75906.53;5277258;28;20040;-65
2023/06/10 10:38:58;;;;;;;8.27;6.43;;;;;;;-145.79;33.98;75898.03;5286700;28;20072;-65
2023/06/10 10:41:31;;;;;;;7.70;6.85;;;;;;;-145.79;33.20;75883.22;5284861;28;20162;-65
2023/06/10 10:44:07;;;;;;;7.53;6.75;;;;;;;-145.79;33.24;75904.41;5302837;28;20032;-66
2023/06/10 10:46:44;;;;;;;7.15;6.45;;;;;;;-145.79;33.48;75872.63;5288440;28;20032;-65
2023/06/10 10:49:17;;;;;;;7.03;6.25;;;;;;;-145.79;33.18;75868.38;5282722;28;20387;-65
2023/06/10 10:51:59;;;;;;;11.77;9.43;;;;;;;-145.79;33.11;75842.97;5281326;28;20411;-65
2023/06/10 10:54:33;;;;;;;7.53;6.72;;;;;;;-145.79;32.76;75859.91;5282038;28;20475;-65
2023/06/10 10:57:13;;;;;;;7.93;5.95;;;;;;;-145.79;33.14;75855.66;5282804;28;20012;-65
2023/06/10 10:59:59;;;;;;;7.10;6.43;;;;;;;-145.79;32.85;75859.91;5302353;28;20040;-65
2023/06/10 11:02:45;;;;;;;7.07;6.38;;;;;;;-145.79;32.90;75859.91;5303513;28;20028;-67
2023/06/10 11:05:17;;;;;;;7.65;6.22;;;;;;;-145.79;33.60;75849.31;5300045;28;20024;-67
2023/06/10 11:07:55;;;;;;;7.82;6.70;;;;;;;-145.79;33.34;75838.72;5282353;28;20383;-68
2023/06/10 11:10:30;;;;;;;7.80;7.10;;;;;;;-145.79;32.08;75834.47;5281890;28;20468;-67
2023/06/10 11:13:14;;;;;;;;;;;;;;;-145.79;32.63;75826.00;5282675;28;20027;-67
2023/06/10 11:15:48;;;;;;;10.07;9.05;;;;;;;-145.79;32.18;75821.75;5282366;28;20065;-67
2023/06/10 11:18:29;;;;;;;6.85;6.15;;;;;;;-145.79;32.61;75804.81;5282272;28;20021;-67
2023/06/10 11:21:05;;;;;;;7.68;6.35;;;;;;;-145.79;32.32;75785.75;5281573;28;20016;-67
2023/06/10 11:23:41;;;;;;;25.67;23.33;;;;;;;-145.79;32.31;75787.88;5294849;28;20054;-67
2023/06/10 11:26:12;;;;;;;8.40;6.47;;;;;;;-145.79;32.45;75789.97;5302631;28;20031;-67
2023/06/10 11:28:46;;;;;;;8.03;6.73;;;;;;;-145.79;32.54;75766.69;5303544;28;20016;-67
2023/06/10 11:31:39;;;;;;;8.10;7.40;;;;;;;-145.79;32.73;75787.88;5302773;28;20795;-67
2023/06/10 11:34:11;;;;;;;12.02;10.88;;;;;;;-145.79;32.23;75758.19;5302851;28;20483;-68
2023/06/10 11:36:45;;;;;;;6.85;5.97;;;;;;;-145.79;31.80;75749.72;5291841;28;20036;-69
2023/06/10 11:39:17;;;;;;;7.03;6.43;;;;;;;-145.79;31.97;75766.69;5282078;28;20037;-66
2023/06/10 11:41:50;;;;;;;8.45;6.43;;;;;;;-145.79;31.70;75751.84;5302460;28;20107;-65
2023/06/10 11:44:21;;;;;;;7.03;6.32;;;;;;;-145.79;31.72;75737.00;5302790;28;20043;-66
2023/06/10 11:46:53;;;;;;;7.53;6.30;;;;;;;-145.79;32.06;75726.41;5302086;28;20029;-67
2023/06/10 11:49:25;;;;;;;8.60;6.95;;;;;;;-145.79;31.21;75711.59;5303217;28;20027;-64
2023/06/10 11:51:56;;;;;;;7.30;6.60;;;;;;;-145.79;30.78;75711.59;5303131;28;20099;-67
2023/06/10 11:54:27;;;;;;;6.72;6.13;;;;;;;-145.79;30.26;75694.63;5302537;28;20101;-68
2023/06/10 11:57:03;;;;;;;8.15;6.40;;;;;;;-145.79;31.00;75690.41;5302161;28;20466;-71
2023/06/10 11:59:35;;;;;;;8.55;6.57;;;;;;;-145.79;31.01;75654.38;5302637;28;20074;-70
2023/06/10 12:02:15;;;;;;;7.75;7.03;;;;;;;-145.79;31.05;75660.75;5302649;28;20471;-71
2023/06/10 12:04:46;;;;;;;7.10;6.18;;;;;;;-145.79;30.88;75652.25;5302872;28;20020;-71
2023/06/10 12:07:19;;;;;;;7.18;6.20;;;;;;;-145.79;30.18;75618.38;5302239;28;20020;-70
2023/06/10 12:10:00;;;;;;;6.82;6.15;;;;;;;-145.79;30.31;75612.00;5306018;28;20024;-71
2023/06/10 12:12:36;;;;;;;6.75;5.85;;;;;;;-145.79;30.29;75620.47;5302196;28;20021;-72
2023/06/10 12:15:08;;;;;;;6.85;5.70;;;;;;;-145.79;29.94;75605.66;5301417;28;20069;-73
2023/06/10 12:17:42;;;;;;;7.93;6.80;;;;;;;-145.79;30.11;75601.41;5305987;28;20036;-71
2023/06/10 12:20:28;;;;;;;6.60;6.00;;;;;;;-145.79;29.93;75582.34;5298274;28;20043;-69
2023/06/10 12:23:01;;;;;;;6.20;5.60;;;;;;;-145.79;29.46;75605.66;5293043;28;20464;-69
2023/06/10 12:25:32;;;;;;;7.32;6.72;;;;;;;-145.79;29.56;75599.31;5324868;22;20045;-68
2023/06/10 12:28:04;;;;;;;7.40;6.47;;;;;;;-145.79;29.13;75578.13;5264283;28;20021;-71
2023/06/10 12:30:35;;;;;;;6.75;6.15;;;;;;;-145.79;29.69;75539.97;5264564;28;20025;-70
2023/06/10 12:33:19;;;;;;;6.53;5.93;;;;;;;-145.79;29.18;75559.03;5262039;28;20033;-70
2023/06/10 12:35:51;;;;;;;6.90;6.30;;;;;;;-145.79;29.15;75539.97;5263675;28;20036;-69
2023/06/10 12:38:24;;;;;;;7.13;6.43;;;;;;;-145.79;29.29;75535.75;5264479;28;20029;-70
2023/06/10 12:41:05;;;;;;;7.97;6.22;;;;;;;-145.79;29.21;75518.78;5264127;28;20029;-70
2023/06/10 12:43:39;;;;;;;6.68;5.88;;;;;;;-145.79;29.27;75512.44;5262737;28;20032;-71
2023/06/10 12:46:11;;;;;;;6.65;6.05;;;;;;;-145.79;29.22;75480.66;5264082;28;20472;-71
2023/06/10 12:48:56;;;;;;;8.82;5.75;;;;;;;-145.79;28.93;75499.72;5263925;28;20570;-74
2023/06/10 12:51:27;;;;;;;6.75;6.05;;;;;;;-145.79;28.56;75489.13;5264418;28;20024;-71
2023/06/10 12:53:59;;;;;;;7.65;6.32;;;;;;;-145.79;28.68;75491.25;5264196;28;20020;-71
2023/06/10 12:56:30;;;;;;;12.82;6.63;;;;;;;-145.79;28.42;75501.84;5263207;28;20524;-72
2023/06/10 12:59:03;;;;;;;6.15;5.50;;;;;;;-145.79;28.71;75501.84;5277974;28;20368;-71
2023/06/10 13:01:35;;;;;;;6.88;5.55;;;;;;;-145.79;28.07;75516.66;5274389;28;20021;-71
2023/06/10 13:04:13;;;;;;;9.93;8.93;;;;;;;-145.79;27.53;75491.25;5263259;28;20442;-73
2023/06/10 13:06:47;;;;;;;8.50;5.88;;;;;;;-145.79;27.55;75474.28;5263453;28;20018;-73
2023/06/10 13:09:18;;;;;;;6.85;6.22;;;;;;;-145.79;28.23;75470.06;5265334;28;20468;-73
2023/06/10 13:11:50;;;;;;;7.10;6.50;;;;;;;-145.79;28.59;75455.22;5263943;28;20163;-74
2023/06/10 13:14:22;;;;;;;6.93;6.40;;;;;;;-145.79;28.62;75448.88;5264445;28;20029;-73
2023/06/10 13:16:54;;;;;;;7.05;6.55;;;;;;;-145.79;28.27;75442.53;5263451;28;20116;-72
2023/06/10 13:19:26;;;;;;;7.53;5.93;;;;;;;-145.79;28.88;75448.88;5263817;28;20033;-73
2023/06/10 13:21:57;;;;;;;6.38;5.82;;;;;;;-145.79;28.16;75434.03;5259326;28;20357;-72
2023/06/10 13:24:28;;;;;;;6.75;6.10;;;;;;;-145.79;27.51;75398.03;5263206;28;20045;-72
2023/06/10 13:27:00;;;;;;;6.25;5.65;;;;;;;-145.79;27.73;75391.66;5263635;28;20036;-73
2023/06/10 13:29:31;;;;;;;6.55;5.80;;;;;;;-145.79;27.58;75398.03;5263686;28;20051;-72
2023/06/10 13:32:02;;;;;;;14.77;13.57;;;;;;;-145.79;27.46;75393.78;5262007;28;20112;-72
2023/06/10 13:39:50;;;;;;;6.07;5.47;;;;;;;-145.79;27.04;75364.13;5261202;28;20037;-71
2023/06/10 13:42:26;;;;;;;7.15;6.15;;;;;;;-145.79;26.91;75370.50;5263469;28;20423;-70
2023/06/10 13:44:57;;;;;;;6.53;5.90;;;;;;;-145.79;27.14;75370.50;5262152;28;20040;-70
2023/06/10 13:47:29;;;;;;;6.85;5.03;;;;;;;-145.79;26.73;75364.13;5262628;28;20033;-70
2023/06/10 13:50:00;;;;;;;6.00;5.43;;;;;;;-145.79;26.84;75351.41;5263639;28;20387;-70
2023/06/10 13:52:31;;;;;;;10.85;7.57;;;;;;;-145.79;26.89;75321.75;5263050;28;20033;-72
2023/06/10 13:55:03;;;;;;;6.63;6.03;;;;;;;-145.79;26.62;75306.94;5261714;28;20041;-70
2023/06/10 13:57:34;;;;;;;7.53;5.82;;;;;;;-145.79;27.03;75319.63;5262747;28;20033;-70
2023/06/10 14:00:10;;;;;;;7.55;6.18;;;;;;;-145.79;26.11;75302.69;5262198;28;20083;-71
2023/06/10 14:02:41;;;;;;;6.03;5.15;;;;;;;-145.79;26.50;75287.88;5262178;28;20036;-71
2023/06/10 14:05:13;;;;;;;7.90;7.20;;;;;;;-145.79;26.71;75292.09;5245291;28;20365;-70
2023/06/10 14:07:50;;;;;;;6.07;5.47;;;;;;;-145.79;26.75;75298.47;5262336;28;20423;-71
2023/06/10 14:10:22;;;;;;;5.45;5.05;;;;;;;-145.79;26.84;75296.34;5262908;28;20494;-70
2023/06/10 14:12:53;;;;;;;6.80;5.70;;;;;;;-145.79;26.76;75270.91;5246949;28;20017;-71
2023/06/10 14:15:25;;;;;;;7.75;6.03;;;;;;;-145.79;25.94;75270.91;5262253;28;20029;-70
2023/06/10 14:17:56;;;;;;;6.57;5.85;;;;;;;-145.79;26.36;75275.16;5262847;28;20514;-71
2023/06/10 14:20:31;;;;;;;8.80;6.93;;;;;;;-145.79;26.52;75260.31;5256938;28;20029;-71
2023/06/10 14:23:02;;;;;;;;;;;;;;;-145.79;26.77;75237.03;5244648;28;20098;-71
2023/06/10 14:25:33;;;;;;;7.63;7.03;;;;;;;-145.79;26.36;75283.63;5262713;28;19917;-71
2023/06/10 14:28:05;;;;;;;7.60;5.75;;;;;;;-145.79;26.95;75283.63;5261990;28;20419;-70
2023/06/10 14:30:36;;;;;;;6.45;5.88;;;;;;;-145.79;26.67;75270.91;5262207;28;20021;-70
2023/06/10 14:33:07;;;;;;;6.53;6.00;;;;;;;-145.79;26.59;75279.38;5262036;28;20021;-70
2023/06/10 14:35:39;;;;;;;5.70;5.25;;;;;;;-145.79;26.69;75266.69;5261571;28;20021;-70
2023/06/10 14:38:10;;;;;;;6.45;5.85;;;;;;;-145.79;26.65;75260.31;5262286;28;20102;-70
2023/06/10 14:40:42;;;;;;;11.75;10.43;;;;;;;-145.79;26.95;75304.81;5262788;28;20028;-71
2023/06/10 14:43:13;;;;;;;6.38;5.78;;;;;;;-145.79;27.14;75300.56;5261238;28;20036;-71
2023/06/10 14:45:45;;;;;;;6.57;6.07;;;;;;;-145.79;27.29;75338.72;5262420;28;20464;-71
2023/06/10 14:48:16;;;;;;;6.50;5.93;;;;;;;-145.79;27.07;75330.22;5262051;28;20143;-70
2023/06/10 14:50:50;;;;;;;6.53;5.93;;;;;;;-145.79;27.37;75302.69;5262122;28;20025;-70
2023/06/10 14:53:22;;;;;;;6.57;5.97;;;;;;;-145.79;27.13;75298.47;5262047;28;20104;-70
2023/06/10 14:55:53;;;;;;;5.50;4.93;;;;;;;-145.79;26.85;75313.28;5261165;28;20096;-74
2023/06/10 14:58:24;;;;;;;6.57;5.90;;;;;;;-145.79;27.16;75287.88;5260826;28;20396;-74
2023/06/10 15:00:56;;;;;;;8.18;5.85;;;;;;;-145.79;27.18;75311.16;5261217;28;20025;-75
2023/06/10 15:03:30;;;;;;;6.25;5.68;;;;;;;-145.79;27.08;75311.16;5260991;28;20484;-75
2023/06/10 15:06:01;;;;;;;6.45;5.85;;;;;;;-145.79;27.52;75298.47;5261137;28;20033;-75
2023/06/10 15:08:33;;;;;;;6.10;5.57;;;;;;;-145.79;27.18;75287.88;5262113;28;20115;-75
2023/06/10 15:11:06;;;;;;;6.03;5.40;;;;;;;-145.79;27.07;75294.22;5261784;28;20376;-74
2023/06/10 15:13:38;;;;;;;6.25;5.45;;;;;;;-145.79;27.01;75275.16;5262333;28;20071;-75
2023/06/10 15:16:09;;;;;;;7.75;5.82;;;;;;;-145.79;27.05;75266.69;5261148;28;20041;-76
2023/06/10 15:18:43;;;;;;;5.88;5.38;;;;;;;-145.79;26.74;75289.97;5261052;28;20031;-75
2023/06/10 15:21:15;;;;;;;8.82;6.20;;;;;;;-145.79;26.64;75309.03;5256392;28;20035;-75
2023/06/10 15:23:47;;;;;;;7.22;6.10;;;;;;;-145.79;27.44;75338.72;5260887;28;20037;-75
2023/06/10 15:26:18;;;;;;;7.43;6.72;;;;;;;-145.79;27.18;75359.91;5262271;28;20380;-74
2023/06/10 15:28:50;;;;;;;7.57;5.38;;;;;;;-145.79;27.56;75381.09;5262245;28;20061;-75
2023/06/10 15:31:21;;;;;;;6.15;5.55;;;;;;;-145.79;27.43;75378.97;5260117;28;20037;-75
2023/06/10 15:33:53;;;;;;;6.47;5.72;;;;;;;-145.79;27.75;75355.66;5261103;28;20449;-75
2023/06/10 15:36:24;;;;;;;6.40;5.78;;;;;;;-145.79;27.55;75340.81;5261304;28;20033;-75
2023/06/10 15:39:03;;;;;;;7.10;5.95;;;;;;;-145.79;27.69;75321.75;5261037;28;20504;-75
2023/06/10 15:41:34;;;;;;;5.93;5.43;;;;;;;-145.79;27.18;75345.06;5261271;28;20494;-75
2023/06/10 15:44:05;;;;;;;7.75;6.65;;;;;;;-145.79;27.33;75334.47;5263337;28;20025;-75
2023/06/10 15:46:37;;;;;;;7.68;5.63;;;;;;;-145.79;26.90;75353.53;5264227;28;20083;-75
2023/06/10 15:49:08;;;;;;;7.20;5.95;;;;;;;-145.79;27.04;75347.19;5266172;28;20491;-75
2023/06/10 15:51:40;;;;;;;7.35;6.75;;;;;;;-145.79;27.31;75334.47;5265321;28;20036;-75
2023/06/10 15:54:11;;;;;;;6.30;5.80;;;;;;;-145.79;26.97;75334.47;5256833;28;20029;-74
2023/06/10 15:56:42;;;;;;;7.05;6.35;;;;;;;-145.79;27.51;75338.72;5267382;28;20028;-72
2023/06/10 15:59:15;;;;;;;7.30;6.32;;;;;;;-145.79;27.51;75319.63;5267015;28;20065;-74
2023/06/10 16:01:47;;;;;;;7.00;6.40;;;;;;;-145.79;27.32;75342.94;5267046;28;20048;-75
2023/06/10 16:04:18;;;;;;;8.02;6.97;;;;;;;-145.79;27.37;75311.16;5278127;28;20086;-75
2023/06/10 16:06:50;;;;;;;6.57;6.00;;;;;;;-145.79;27.14;75317.53;5288077;28;20025;-74
2023/06/10 16:09:21;;;;;;;7.07;5.95;;;;;;;-145.79;27.22;75315.41;5287319;28;20033;-75
2023/06/10 16:11:52;;;;;;;6.78;6.18;;;;;;;-145.79;27.58;75298.47;5278385;28;20055;-75
2023/06/10 16:14:24;;;;;;;7.20;6.25;;;;;;;-145.79;27.23;75332.34;5268984;28;20021;-74
2023/06/10 16:16:58;;;;;;;6.18;5.57;;;;;;;-145.79;27.41;75364.13;5265893;28;20052;-75
2023/06/10 16:19:29;;;;;;;7.22;6.22;;;;;;;-145.79;27.50;75372.59;5264736;28;20070;-76
2023/06/10 16:22:01;;;;;;;6.22;5.60;;;;;;;-145.79;27.62;75387.44;5260456;28;20464;-77
2023/06/10 16:24:33;;;;;;;7.00;5.47;;;;;;;-145.79;27.52;75410.75;5265617;28;20095;-73
2023/06/10 16:27:07;;;;;;;8.57;6.13;;;;;;;-145.79;27.72;75400.16;5246952;28;20029;-77
2023/06/10 16:29:38;;;;;;;7.17;5.53;;;;;;;-145.79;27.94;75404.38;5264602;28;20052;-77
2023/06/10 16:32:09;;;;;;;6.82;5.78;;;;;;;-145.79;28.11;75412.84;5265116;28;20021;-74
2023/06/10 16:34:41;;;;;;;7.28;5.57;;;;;;;-145.79;27.69;75391.66;5264309;28;20028;-75
2023/06/10 16:37:12;;;;;;;13.70;8.73;;;;;;;-145.79;27.72;75376.84;5272103;28;20111;-74
2023/06/10 16:39:43;;;;;;;8.52;7.63;;;;;;;-145.79;28.48;75393.78;5264553;28;20041;-76
2023/06/10 16:42:16;;;;;;;9.38;8.57;;;;;;;-145.79;27.80;75385.31;5263180;28;20107;-76
2023/06/10 16:44:47;;;;;;;7.22;6.32;;;;;;;-145.79;27.64;75364.13;5264416;28;20115;-76
2023/06/10 16:47:18;;;;;;;7.85;6.10;;;;;;;-145.79;27.50;75370.50;5275973;28;20107;-76
2023/06/10 16:49:50;;;;;;;6.55;5.95;;;;;;;-145.79;27.89;75355.66;5283056;28;20362;-77
2023/06/10 16:52:21;;;;;;;6.30;5.70;;;;;;;-145.79;27.55;75355.66;5285888;28;20031;-77
2023/06/10 16:54:52;;;;;;;6.43;5.93;;;;;;;-145.79;27.46;75345.06;5263552;28;20036;-76
